KAVP/AVP METAR and TAF weather

Enter ICAO airport designator
Station Type Date Time Source
KAVP METAR 2022/06/25 21:54 UTC NOAA

KAVP 252154Z AUTO 11004KT 10SM CLR 30/18 A3009 RMK AO2 SLP181 T03000178


Station Type Date Time Source
KAVP Decoded METAR 2022/06/25 21:54 UTC NOAA

WILKES-BARRE/SCRANTON INTERNATIONAL , PA, United States (KAVP) 41-20N 75-44W 291M
Jun 25, 2022 - 05:54 PM EDT / 2022.06.25 2154 UTC
Wind: from the ESE (110 degrees) at 5 MPH (4 KT):0
Visibility: 10 mile(s):0
Sky conditions: clear
Temperature: 86.0 F (30.0 C)
Dew Point: 64.0 F (17.8 C)
Relative Humidity: 48%
Pressure (altimeter): 30.09 in. Hg (1018 hPa)
ob: KAVP 252154Z AUTO 11004KT 10SM CLR 30/18 A3009 RMK AO2 SLP181 T03000178
cycle: 22

Station Type Date Time Source
KAVP TAF 2022/06/25 18:22 UTC NOAA

TAF KAVP 251720Z 2518/2618 VRB04KT P6SM SCT060
FM260000 13003KT P6SM SKC
FM261400 22007KT P6SM FEW250

Example: see airport list